createdAt,value
2022-09-17T00:01:31.910Z,30.60
2022-09-17T00:04:04.493Z,30.20
2022-09-17T00:06:36.476Z,30.50
2022-09-17T00:09:07.650Z,26.50
2022-09-17T00:11:37.971Z,29.80
2022-09-17T00:14:07.857Z,30.50
2022-09-17T00:16:38.422Z,25.90
2022-09-17T00:19:10.329Z,26.30
2022-09-17T00:21:38.280Z,25.50
2022-09-17T00:24:07.288Z,22.80
2022-09-17T00:26:36.164Z,21.30
2022-09-17T00:29:05.388Z,23.40
2022-09-17T00:31:34.650Z,22.70
2022-09-17T00:34:04.586Z,24.00
2022-09-17T00:36:38.905Z,22.80
2022-09-17T00:39:11.903Z,22.80
2022-09-17T00:41:39.836Z,24.60
2022-09-17T00:44:39.835Z,24.10
2022-09-17T00:47:32.536Z,24.20
2022-09-17T00:50:15.426Z,23.70
2022-09-17T00:52:54.871Z,22.80
2022-09-17T00:55:36.989Z,21.30
2022-09-17T00:58:08.327Z,21.00
2022-09-17T01:00:37.366Z,23.20
2022-09-17T01:03:05.451Z,23.70
2022-09-17T01:05:45.857Z,21.30
2022-09-17T01:08:40.877Z,21.90
2022-09-17T01:11:34.818Z,19.80
2022-09-17T01:14:24.691Z,21.10
2022-09-17T01:17:07.847Z,21.20
2022-09-17T01:20:00.375Z,19.80
2022-09-17T01:22:35.042Z,19.50
2022-09-17T01:25:25.145Z,18.70
2022-09-17T01:28:08.241Z,18.00
2022-09-17T01:31:05.191Z,19.10
2022-09-17T01:33:41.575Z,19.20
2022-09-17T01:36:46.355Z,19.30
2022-09-17T01:39:48.631Z,21.30
2022-09-17T01:42:36.043Z,22.10
2022-09-17T01:45:17.070Z,21.10
2022-09-17T01:47:50.474Z,17.60
2022-09-17T01:50:24.389Z,15.80
2022-09-17T01:52:55.780Z,18.40
2022-09-17T01:55:32.698Z,17.90
2022-09-17T01:58:07.413Z,16.60
2022-09-17T02:00:38.971Z,15.10
2022-09-17T02:03:13.367Z,15.40
2022-09-17T02:05:50.225Z,15.50
2022-09-17T02:08:26.343Z,13.60
2022-09-17T02:11:02.561Z,14.20
2022-09-17T02:13:44.253Z,14.40
2022-09-17T02:16:18.121Z,13.80
2022-09-17T02:19:16.839Z,16.30
2022-09-17T02:22:10.859Z,14.20
2022-09-17T02:25:05.615Z,12.20
2022-09-17T02:27:39.628Z,13.50
2022-09-17T02:30:08.004Z,13.60
2022-09-17T02:32:35.903Z,13.80
2022-09-17T02:35:04.699Z,14.50
2022-09-17T02:37:33.845Z,14.80
2022-09-17T02:40:02.641Z,15.60
2022-09-17T02:42:56.989Z,15.70
2022-09-17T02:45:36.779Z,19.80
2022-09-17T02:48:21.372Z,21.60
2022-09-17T02:50:57.944Z,26.00
2022-09-17T02:53:45.917Z,25.00
2022-09-17T02:56:39.979Z,25.90
2022-09-17T02:59:32.950Z,21.90
2022-09-17T03:02:13.687Z,19.90
2022-09-17T03:04:42.696Z,17.40
2022-09-17T03:07:12.229Z,16.90
2022-09-17T03:09:41.920Z,17.80
2022-09-17T03:12:11.780Z,20.00
2022-09-17T03:14:39.960Z,16.90
2022-09-17T03:17:08.047Z,21.00
2022-09-17T03:19:35.888Z,18.60
2022-09-17T03:22:03.735Z,17.50
2022-09-17T03:24:31.636Z,15.80
2022-09-17T03:26:59.565Z,16.60
2022-09-17T03:29:27.429Z,15.50
2022-09-17T03:31:55.654Z,16.00
2022-09-17T03:34:23.989Z,14.70
2022-09-17T03:36:51.925Z,13.70
2022-09-17T03:39:19.929Z,11.80
2022-09-17T03:41:47.818Z,14.10
2022-09-17T03:44:15.683Z,15.00
2022-09-17T03:46:43.655Z,15.10
2022-09-17T03:49:11.787Z,14.80
2022-09-17T03:51:39.638Z,14.00
2022-09-17T03:54:07.932Z,12.60
2022-09-17T03:56:35.772Z,11.40
2022-09-17T03:59:03.715Z,13.40
2022-09-17T04:01:31.681Z,13.70
2022-09-17T04:03:59.833Z,13.40
2022-09-17T04:06:28.166Z,12.30
2022-09-17T04:08:57.061Z,11.40
2022-09-17T04:11:25.075Z,10.80
2022-09-17T04:13:52.976Z,10.10
2022-09-17T04:16:20.961Z,10.40
2022-09-17T04:18:48.923Z,10.30
2022-09-17T04:21:16.917Z,11.80
2022-09-17T04:23:44.802Z,13.20
2022-09-17T04:26:12.840Z,11.80
2022-09-17T04:28:40.674Z,12.20
2022-09-17T04:31:08.649Z,10.90
2022-09-17T04:33:37.674Z,10.00
2022-09-17T04:36:05.600Z,9.40
2022-09-17T04:38:33.672Z,10.40
2022-09-17T04:41:01.534Z,10.00
2022-09-17T04:43:29.547Z,11.40
2022-09-17T04:45:57.606Z,10.50
2022-09-17T04:48:25.617Z,10.20
2022-09-17T04:50:55.643Z,10.40
2022-09-17T04:53:23.467Z,9.30
2022-09-17T04:55:51.456Z,9.50
2022-09-17T04:58:19.330Z,10.00
2022-09-17T05:00:47.307Z,10.60
2022-09-17T05:03:15.206Z,10.10
2022-09-17T05:05:43.046Z,9.90
2022-09-17T05:08:11.914Z,9.20
2022-09-17T05:10:39.932Z,9.30
2022-09-17T05:13:07.790Z,9.90
2022-09-17T05:15:35.656Z,9.70
2022-09-17T05:18:03.865Z,11.00
2022-09-17T05:20:31.800Z,11.40
2022-09-17T05:22:59.733Z,10.80
2022-09-17T05:25:27.626Z,11.30
2022-09-17T05:27:56.453Z,10.40
2022-09-17T05:30:24.356Z,9.80
2022-09-17T05:33:03.265Z,12.10
2022-09-17T05:35:31.971Z,12.70
2022-09-17T05:38:01.959Z,11.50
2022-09-17T05:40:31.476Z,10.70
2022-09-17T05:43:01.287Z,11.30
2022-09-17T05:45:30.715Z,10.40
2022-09-17T05:48:00.175Z,12.00
2022-09-17T05:50:30.326Z,11.30
2022-09-17T05:53:05.321Z,12.70
2022-09-17T05:55:35.331Z,11.10
2022-09-17T05:58:14.852Z,11.00
2022-09-17T06:00:43.711Z,11.00
2022-09-17T06:03:13.801Z,10.20
2022-09-17T06:05:42.362Z,11.20
2022-09-17T06:08:10.601Z,11.10
2022-09-17T06:10:39.438Z,9.70
2022-09-17T06:13:07.342Z,9.70
2022-09-17T06:15:35.406Z,9.30
2022-09-17T06:18:03.388Z,10.80
2022-09-17T06:20:31.420Z,8.50
2022-09-17T06:22:59.323Z,9.30
2022-09-17T06:25:29.606Z,8.70
2022-09-17T06:27:57.546Z,9.70
2022-09-17T06:30:25.602Z,9.30
2022-09-17T06:32:53.542Z,10.00
2022-09-17T06:35:21.392Z,9.30
2022-09-17T06:37:49.321Z,8.40
2022-09-17T06:40:17.829Z,8.70
2022-09-17T06:42:45.811Z,10.60
2022-09-17T06:45:16.685Z,7.40
2022-09-17T06:47:44.891Z,6.80
2022-09-17T06:50:12.969Z,7.60
2022-09-17T06:52:54.544Z,7.50
2022-09-17T06:55:22.545Z,7.70
2022-09-17T06:57:50.379Z,7.00
2022-09-17T07:00:18.352Z,7.10
2022-09-17T07:02:56.735Z,7.00
2022-09-17T07:05:26.469Z,6.60
2022-09-17T07:07:54.704Z,6.30
2022-09-17T07:10:27.102Z,6.00
2022-09-17T07:12:55.921Z,6.50
2022-09-17T07:15:23.814Z,7.80
2022-09-17T07:17:51.685Z,7.60
2022-09-17T07:20:20.002Z,7.30
2022-09-17T07:22:57.401Z,7.70
2022-09-17T07:25:29.235Z,8.00
2022-09-17T07:27:57.117Z,7.00
2022-09-17T07:30:25.030Z,6.60
2022-09-17T07:32:52.907Z,6.90
2022-09-17T07:35:20.818Z,6.00
2022-09-17T07:37:48.697Z,5.80
2022-09-17T07:40:16.663Z,5.60
2022-09-17T07:42:44.532Z,7.00
2022-09-17T07:45:12.359Z,7.30
2022-09-17T07:47:41.911Z,7.00
2022-09-17T07:50:10.107Z,5.60
2022-09-17T07:52:38.084Z,5.20
2022-09-17T07:55:07.646Z,5.10
2022-09-17T07:57:35.562Z,5.40
2022-09-17T08:00:04.211Z,5.70
2022-09-17T08:02:39.593Z,5.20
2022-09-17T08:05:07.940Z,6.10
2022-09-17T08:07:35.867Z,5.80
2022-09-17T08:10:03.935Z,5.40
2022-09-17T08:12:31.786Z,6.60
2022-09-17T08:14:59.622Z,6.00
2022-09-17T08:17:27.535Z,6.80
2022-09-17T08:19:55.467Z,6.70
2022-09-17T08:22:23.383Z,6.10
2022-09-17T08:24:51.234Z,6.30
2022-09-17T08:27:19.117Z,6.10
2022-09-17T08:29:47.027Z,5.80
2022-09-17T08:32:15.009Z,5.80
2022-09-17T08:34:42.811Z,5.80
2022-09-17T08:37:10.660Z,5.60
2022-09-17T08:39:38.503Z,6.30
2022-09-17T08:42:17.990Z,6.00
2022-09-17T08:44:49.873Z,6.60
2022-09-17T08:47:38.053Z,6.50
2022-09-17T08:50:18.241Z,6.90
2022-09-17T08:53:07.809Z,6.40
2022-09-17T08:55:47.452Z,5.90
2022-09-17T08:58:30.612Z,7.30
2022-09-17T09:01:10.788Z,6.20
2022-09-17T09:04:04.000Z,6.60
2022-09-17T09:06:41.594Z,6.50
2022-09-17T09:09:16.436Z,6.40
2022-09-17T09:11:47.349Z,5.90
2022-09-17T09:14:30.500Z,5.10
2022-09-17T09:17:01.753Z,4.90
2022-09-17T09:19:34.732Z,6.40
2022-09-17T09:22:13.941Z,6.20
2022-09-17T09:25:03.503Z,5.80
2022-09-17T09:27:38.956Z,5.20
2022-09-17T09:30:10.668Z,5.70
2022-09-17T09:32:47.657Z,5.90
2022-09-17T09:35:32.295Z,5.80
2022-09-17T09:38:22.899Z,5.60
2022-09-17T09:41:18.423Z,5.90
2022-09-17T09:44:12.447Z,5.80
2022-09-17T09:47:02.354Z,6.20
2022-09-17T09:49:56.219Z,5.40
2022-09-17T09:52:46.255Z,5.80
2022-09-17T09:55:50.535Z,6.80
2022-09-17T09:58:38.625Z,6.70
2022-09-17T10:01:17.238Z,5.10
2022-09-17T10:03:47.999Z,4.90
2022-09-17T10:06:17.501Z,5.50
2022-09-17T10:08:57.755Z,4.80
2022-09-17T10:11:33.431Z,4.50
2022-09-17T10:14:21.236Z,3.80
2022-09-17T10:16:49.727Z,4.90
2022-09-17T10:19:25.819Z,4.70
2022-09-17T10:22:14.343Z,5.20
2022-09-17T10:24:42.243Z,5.70
2022-09-17T10:27:19.974Z,5.40
2022-09-17T10:29:51.354Z,6.80
2022-09-17T10:32:22.241Z,4.70
2022-09-17T10:35:16.626Z,3.70
2022-09-17T10:37:47.527Z,4.50
2022-09-17T10:40:21.132Z,3.90
2022-09-17T10:42:51.705Z,3.40
2022-09-17T10:45:31.885Z,3.30
2022-09-17T10:48:00.564Z,3.70
2022-09-17T10:50:31.125Z,3.30
2022-09-17T10:53:16.999Z,3.30
2022-09-17T10:55:47.115Z,4.30
2022-09-17T10:58:26.732Z,3.50
2022-09-17T11:01:12.777Z,3.50
2022-09-17T11:04:05.050Z,4.00
2022-09-17T11:06:56.555Z,3.90
2022-09-17T11:09:27.149Z,5.00
2022-09-17T11:12:13.829Z,3.70
2022-09-17T11:14:53.446Z,3.80
2022-09-17T11:17:55.755Z,3.50
2022-09-17T11:21:04.835Z,3.90
2022-09-17T11:23:58.715Z,5.00
2022-09-17T11:27:20.372Z,4.30
2022-09-17T11:30:06.721Z,4.50
2022-09-17T11:32:52.627Z,4.40
2022-09-17T11:35:29.181Z,4.80
2022-09-17T11:38:15.086Z,4.70
2022-09-17T11:41:00.857Z,4.90
2022-09-17T11:43:35.047Z,5.20
2022-09-17T11:46:10.219Z,5.50
2022-09-17T11:48:48.993Z,5.60
2022-09-17T11:51:29.090Z,5.90
2022-09-17T11:54:06.933Z,5.20
2022-09-17T11:56:43.962Z,6.50
2022-09-17T11:59:25.523Z,6.00
2022-09-17T12:01:59.213Z,5.50
2022-09-17T12:04:32.905Z,6.20
2022-09-17T12:07:20.989Z,5.80
2022-09-17T12:10:21.642Z,7.00
2022-09-17T12:12:58.258Z,6.60
2022-09-17T12:15:31.170Z,5.80
2022-09-17T12:18:33.021Z,5.90
2022-09-17T12:21:05.208Z,6.70
2022-09-17T12:23:57.010Z,6.40
2022-09-17T12:26:49.543Z,6.30
2022-09-17T12:29:20.579Z,7.30
2022-09-17T12:32:29.644Z,7.10
2022-09-17T12:35:12.571Z,6.60
2022-09-17T12:37:58.444Z,7.90
2022-09-17T12:40:38.585Z,6.60
2022-09-17T12:43:29.299Z,6.30
2022-09-17T12:45:57.103Z,7.00
2022-09-17T12:48:41.347Z,8.50
2022-09-17T12:51:29.439Z,9.60
2022-09-17T12:54:15.138Z,6.40
2022-09-17T12:57:05.110Z,6.00
2022-09-17T12:59:36.451Z,5.90
2022-09-17T13:02:49.561Z,6.90
2022-09-17T13:05:36.132Z,6.60
2022-09-17T13:08:52.719Z,5.90
2022-09-17T13:11:39.024Z,6.40
2022-09-17T13:14:25.744Z,7.10
2022-09-17T13:17:28.178Z,6.20
2022-09-17T13:20:21.696Z,6.20
2022-09-17T13:24:09.700Z,6.50
2022-09-17T13:28:00.643Z,5.80
2022-09-17T13:32:00.986Z,7.00
2022-09-17T13:35:30.177Z,6.90
2022-09-17T13:38:23.656Z,7.50
2022-09-17T13:41:13.002Z,7.00
2022-09-17T13:43:46.825Z,7.30
2022-09-17T13:46:22.855Z,20.00
2022-09-17T13:48:57.259Z,25.90
2022-09-17T13:54:03.537Z,59.40
2022-09-17T13:56:41.479Z,12.70
2022-09-17T13:59:27.578Z,16.80
2022-09-17T14:01:59.310Z,8.20
2022-09-17T14:04:36.140Z,7.80
2022-09-17T14:07:23.940Z,7.20
2022-09-17T14:10:02.434Z,10.00
2022-09-17T14:12:48.917Z,9.00
2022-09-17T14:15:39.992Z,7.50
2022-09-17T14:18:26.849Z,10.30
2022-09-17T14:21:07.119Z,9.60
2022-09-17T14:23:43.292Z,12.80
2022-09-17T14:26:19.737Z,13.00
2022-09-17T14:29:03.665Z,9.20
2022-09-17T14:31:35.932Z,13.70
2022-09-17T14:34:06.569Z,11.20
2022-09-17T14:36:39.413Z,7.30
2022-09-17T14:39:19.950Z,7.20
2022-09-17T14:41:51.055Z,7.30
2022-09-17T14:44:21.748Z,11.00
2022-09-17T14:47:18.441Z,7.20
2022-09-17T14:49:47.313Z,20.10
2022-09-17T14:52:24.840Z,15.10
2022-09-17T14:55:11.293Z,18.00
2022-09-17T14:57:39.227Z,38.30
2022-09-17T15:00:18.627Z,17.50
2022-09-17T15:02:52.159Z,11.40
2022-09-17T15:05:35.469Z,17.20
2022-09-17T15:08:38.681Z,12.40
2022-09-17T15:11:12.075Z,13.80
2022-09-17T15:13:43.054Z,10.60
2022-09-17T15:16:26.187Z,9.50
2022-09-17T15:19:01.262Z,11.40
2022-09-17T15:21:45.659Z,10.90
2022-09-17T15:24:50.432Z,22.80
2022-09-17T15:27:22.384Z,33.20
2022-09-17T15:29:55.543Z,19.20
2022-09-17T15:32:23.582Z,13.00
2022-09-17T15:35:17.507Z,15.10
2022-09-17T15:40:41.777Z,10.70
2022-09-17T15:43:13.621Z,16.70
2022-09-17T15:45:43.266Z,9.50
2022-09-17T15:48:34.510Z,8.70
2022-09-17T15:51:04.608Z,10.00
2022-09-17T15:53:35.053Z,16.90
2022-09-17T15:56:06.061Z,11.90
2022-09-17T15:58:46.891Z,9.80
2022-09-17T16:01:17.691Z,10.10
2022-09-17T16:03:46.823Z,9.90
2022-09-17T16:06:17.788Z,10.10
2022-09-17T16:08:50.002Z,11.60
2022-09-17T16:11:20.339Z,8.50
2022-09-17T16:13:49.475Z,9.10
2022-09-17T16:16:19.871Z,8.50
2022-09-17T16:18:48.956Z,10.00
2022-09-17T16:21:23.187Z,10.40
2022-09-17T16:23:54.058Z,19.60
2022-09-17T16:26:28.909Z,8.60
2022-09-17T16:29:02.832Z,9.30
2022-09-17T16:31:30.815Z,7.90
2022-09-17T16:33:58.804Z,7.50
2022-09-17T16:36:27.438Z,9.60
2022-09-17T16:38:55.346Z,16.80
2022-09-17T16:41:23.446Z,16.60
2022-09-17T16:43:51.336Z,9.30
2022-09-17T16:46:19.269Z,9.80
2022-09-17T16:48:50.216Z,9.30
2022-09-17T16:51:18.201Z,10.30
2022-09-17T16:53:46.257Z,14.20
2022-09-17T16:56:15.559Z,14.70
2022-09-17T16:58:43.451Z,10.30
2022-09-17T17:01:14.644Z,11.50
2022-09-17T17:03:42.888Z,11.50
2022-09-17T17:06:19.080Z,7.90
2022-09-17T17:08:47.657Z,10.90
2022-09-17T17:11:15.896Z,12.60
2022-09-17T17:13:44.195Z,12.10
2022-09-17T17:16:14.747Z,13.20
2022-09-17T17:18:44.398Z,12.60
2022-09-17T17:21:14.407Z,14.00
2022-09-17T17:23:47.392Z,11.70
2022-09-17T17:26:16.423Z,11.20
2022-09-17T17:28:44.498Z,10.10
2022-09-17T17:31:12.466Z,10.40
2022-09-17T17:33:40.430Z,9.50
2022-09-17T17:36:09.788Z,8.70
2022-09-17T17:38:38.757Z,8.70
2022-09-17T17:41:10.946Z,9.40
2022-09-17T17:43:39.472Z,8.70
2022-09-17T17:46:12.226Z,11.60
2022-09-17T17:48:40.153Z,13.90
2022-09-17T17:51:10.100Z,13.30
2022-09-17T17:53:42.748Z,14.90
2022-09-17T17:56:12.062Z,13.30
2022-09-17T17:58:40.998Z,11.90
2022-09-17T18:01:14.483Z,12.10
2022-09-17T18:03:43.205Z,15.20
2022-09-17T18:06:11.686Z,15.40
2022-09-17T18:08:41.848Z,13.70
2022-09-17T18:11:11.589Z,14.30
2022-09-17T18:13:40.279Z,13.30
2022-09-17T18:16:12.119Z,15.40
2022-09-17T18:18:44.919Z,16.30
2022-09-17T18:21:19.064Z,22.70
2022-09-17T18:23:47.799Z,16.80
2022-09-17T18:26:18.591Z,15.50
2022-09-17T18:28:47.153Z,18.60
2022-09-17T18:31:28.959Z,19.00
2022-09-17T18:34:02.792Z,18.90
2022-09-17T18:36:33.748Z,20.10
2022-09-17T18:41:53.527Z,19.70
2022-09-17T18:44:22.602Z,20.10
2022-09-17T18:46:51.566Z,20.40
2022-09-17T18:49:19.665Z,20.20
2022-09-17T18:51:47.949Z,20.50
2022-09-17T18:54:15.924Z,19.00
2022-09-17T18:56:43.866Z,21.80
2022-09-17T18:59:11.831Z,23.20
2022-09-17T19:01:39.800Z,23.50
2022-09-17T19:04:08.542Z,22.30
2022-09-17T19:06:39.194Z,21.30
2022-09-17T19:09:07.121Z,22.50
2022-09-17T19:11:36.438Z,23.70
2022-09-17T19:14:04.402Z,22.30
2022-09-17T19:16:32.665Z,19.90
2022-09-17T19:19:00.931Z,20.70
2022-09-17T19:21:28.865Z,21.70
2022-09-17T19:23:57.349Z,21.60
2022-09-17T19:26:27.476Z,22.60
2022-09-17T19:28:58.741Z,24.30
2022-09-17T19:31:28.120Z,23.00
2022-09-17T19:33:58.730Z,23.30
2022-09-17T19:36:27.463Z,26.40
2022-09-17T19:38:55.818Z,25.00
2022-09-17T19:41:23.870Z,23.20
2022-09-17T19:43:57.046Z,22.90
2022-09-17T19:46:26.748Z,25.30
2022-09-17T19:48:57.291Z,25.20
2022-09-17T19:51:28.469Z,25.60
2022-09-17T19:53:57.447Z,24.40
2022-09-17T19:56:27.518Z,24.40
2022-09-17T19:58:56.783Z,23.80
2022-09-17T20:01:25.049Z,24.50
2022-09-17T20:03:55.560Z,25.30
2022-09-17T20:06:24.205Z,23.90
2022-09-17T20:08:55.087Z,24.60
2022-09-17T20:11:25.350Z,26.40
2022-09-17T20:14:06.579Z,26.10
2022-09-17T20:16:37.392Z,26.60
2022-09-17T20:19:08.108Z,26.20
2022-09-17T20:21:36.182Z,26.30
2022-09-17T20:24:06.212Z,24.80
2022-09-17T20:26:35.112Z,25.30
2022-09-17T20:29:04.176Z,23.40
2022-09-17T20:31:32.714Z,22.30
2022-09-17T20:34:02.624Z,20.40
2022-09-17T20:36:33.607Z,19.10
2022-09-17T20:39:13.177Z,19.30
2022-09-17T20:41:44.659Z,20.50
2022-09-17T20:44:12.579Z,17.30
2022-09-17T20:46:40.663Z,15.70
2022-09-17T20:49:08.927Z,16.80
2022-09-17T20:51:36.811Z,15.20
2022-09-17T20:54:06.178Z,14.90
2022-09-17T20:56:35.372Z,14.20
2022-09-17T20:59:13.387Z,13.70
2022-09-17T21:01:45.506Z,13.10
2022-09-17T21:04:17.009Z,10.40
2022-09-17T21:06:46.226Z,10.90
2022-09-17T21:09:17.869Z,9.50
2022-09-17T21:11:47.812Z,8.80
2022-09-17T21:14:17.591Z,8.30
2022-09-17T21:16:46.074Z,7.70
2022-09-17T21:19:16.236Z,6.90
2022-09-17T21:21:44.821Z,7.20
2022-09-17T21:24:12.878Z,6.90
2022-09-17T21:26:40.919Z,6.50
2022-09-17T21:29:09.714Z,6.30
2022-09-17T21:31:38.806Z,6.60
2022-09-17T21:34:10.382Z,7.20
2022-09-17T21:36:40.835Z,7.20
2022-09-17T21:39:17.202Z,6.90
2022-09-17T21:41:46.092Z,7.50
2022-09-17T21:44:14.990Z,7.20
2022-09-17T21:46:43.388Z,8.00
2022-09-17T21:49:13.559Z,9.00
2022-09-17T21:51:42.822Z,8.80
2022-09-17T21:54:13.451Z,7.80
2022-09-17T21:56:41.679Z,8.60
2022-09-17T21:59:12.152Z,7.80
2022-09-17T22:01:44.075Z,8.00
2022-09-17T22:04:14.641Z,9.10
2022-09-17T22:06:44.001Z,8.10
2022-09-17T22:09:22.349Z,7.70
2022-09-17T22:11:51.298Z,7.20
2022-09-17T22:14:21.791Z,8.30
2022-09-17T22:16:57.012Z,7.40
2022-09-17T22:19:26.532Z,6.60
2022-09-17T22:21:56.125Z,6.20
2022-09-17T22:24:25.764Z,6.10
2022-09-17T22:26:57.925Z,5.60
2022-09-17T22:29:31.851Z,5.30
2022-09-17T22:31:59.752Z,5.80
2022-09-17T22:34:27.741Z,5.60
2022-09-17T22:36:55.629Z,5.00
2022-09-17T22:39:23.611Z,5.40
2022-09-17T22:41:51.513Z,5.00
2022-09-17T22:44:20.185Z,5.40
2022-09-17T22:46:51.347Z,4.40
2022-09-17T22:49:21.800Z,5.20
2022-09-17T22:51:49.698Z,4.90
2022-09-17T22:54:19.727Z,5.70
2022-09-17T22:56:49.234Z,5.60
2022-09-17T22:59:18.344Z,5.30
2022-09-17T23:01:46.946Z,5.30
2022-09-17T23:04:14.905Z,4.80
2022-09-17T23:06:43.244Z,5.20
2022-09-17T23:09:15.974Z,5.80
2022-09-17T23:11:43.855Z,4.70
2022-09-17T23:14:13.524Z,5.30
2022-09-17T23:16:51.113Z,4.70
2022-09-17T23:19:19.660Z,5.10
2022-09-17T23:21:47.602Z,4.90
2022-09-17T23:24:21.094Z,5.60
2022-09-17T23:27:20.915Z,5.20
2022-09-17T23:29:48.802Z,5.40
2022-09-17T23:33:35.746Z,4.50
2022-09-17T23:38:36.259Z,4.80
2022-09-17T23:41:17.239Z,5.00
2022-09-17T23:43:48.178Z,4.90
2022-09-17T23:46:16.588Z,4.80
2022-09-17T23:48:45.325Z,5.10
2022-09-17T23:51:13.685Z,4.70
2022-09-17T23:53:41.688Z,4.20
2022-09-17T23:56:14.701Z,4.70
2022-09-17T23:58:42.554Z,4.40
